TimeEST,TemperatureF,Dew PointF,Humidity,Sea Level PressureIn,VisibilityMPH,Wind Direction,Wind SpeedMPH,Gust SpeedMPH,PrecipitationIn,Events,Conditions,WindDirDegrees,DateUTC
12:15 AM,60.8,51.8,72,29.91,10.0,South,13.8,23.0,N/A,,Scattered Clouds,170,2013-01-30 05:15:00
12:35 AM,59.0,51.8,77,29.90,10.0,SSE,15.0,21.9,N/A,,Mostly Cloudy,160,2013-01-30 05:35:00
12:55 AM,60.8,53.6,77,29.89,10.0,SSE,12.7,19.6,N/A,,Mostly Cloudy,160,2013-01-30 05:55:00
1:15 AM,59.0,53.6,82,29.88,10.0,SSE,12.7,23.0,N/A,,Scattered Clouds,160,2013-01-30 06:15:00
1:35 AM,60.8,53.6,77,29.87,10.0,SSE,16.1,20.7,N/A,,Mostly Cloudy,160,2013-01-30 06:35:00
1:55 AM,59.0,55.4,88,29.86,10.0,SSE,15.0,24.2,N/A,,Overcast,160,2013-01-30 06:55:00
2:15 AM,59.0,55.4,88,29.85,10.0,SSE,13.8,23.0,N/A,,Overcast,160,2013-01-30 07:15:00
2:35 AM,59.0,55.4,88,29.84,10.0,SSE,11.5,18.4,N/A,,Overcast,150,2013-01-30 07:35:00
2:55 AM,59.0,55.4,88,29.83,10.0,SSE,10.4,-,N/A,,Overcast,160,2013-01-30 07:55:00
3:15 AM,59.0,55.4,88,29.81,10.0,South,12.7,18.4,N/A,,Mostly Cloudy,180,2013-01-30 08:15:00
3:35 AM,60.8,55.4,82,29.80,10.0,South,11.5,20.7,N/A,,Scattered Clouds,170,2013-01-30 08:35:00
3:55 AM,60.8,55.4,82,29.80,10.0,South,16.1,25.3,N/A,,Scattered Clouds,170,2013-01-30 08:55:00
4:15 AM,60.8,53.6,77,29.78,10.0,South,19.6,26.5,N/A,,Mostly Cloudy,170,2013-01-30 09:15:00
4:35 AM,60.8,53.6,77,29.77,10.0,South,20.7,27.6,N/A,,Overcast,180,2013-01-30 09:35:00
4:55 AM,62.6,53.6,72,29.75,10.0,South,12.7,23.0,N/A,,Overcast,170,2013-01-30 09:55:00
5:15 AM,62.6,53.6,72,29.74,10.0,South,19.6,26.5,N/A,,Overcast,170,2013-01-30 10:15:00
5:35 AM,60.8,53.6,77,29.73,10.0,South,11.5,24.2,N/A,,Overcast,170,2013-01-30 10:35:00
5:55 AM,60.8,53.6,77,29.71,10.0,South,19.6,29.9,N/A,,Mostly Cloudy,170,2013-01-30 10:55:00
6:15 AM,60.8,53.6,77,29.70,7.0,South,19.6,31.1,N/A,Rain,Light Rain,170,2013-01-30 11:15:00
6:35 AM,60.8,53.6,77,29.69,10.0,South,23.0,32.2,N/A,,Scattered Clouds,180,2013-01-30 11:35:00
6:55 AM,60.8,53.6,77,29.67,10.0,South,17.3,31.1,N/A,,Scattered Clouds,180,2013-01-30 11:55:00
7:15 AM,62.6,53.6,72,29.65,10.0,South,19.6,35.7,N/A,,Scattered Clouds,170,2013-01-30 12:15:00
7:35 AM,62.6,53.6,72,29.66,10.0,South,21.9,31.1,N/A,,Mostly Cloudy,180,2013-01-30 12:35:00
7:55 AM,62.6,53.6,72,29.67,10.0,South,20.7,35.7,N/A,,Overcast,180,2013-01-30 12:55:00
8:15 AM,62.6,53.6,72,29.66,10.0,South,18.4,33.4,N/A,,Overcast,170,2013-01-30 13:15:00
8:35 AM,62.6,55.4,77,29.67,10.0,South,23.0,32.2,N/A,,Unknown,180,2013-01-30 13:35:00
8:55 AM,62.6,55.4,77,29.68,7.0,South,23.0,35.7,N/A,,Overcast,180,2013-01-30 13:55:00
9:15 AM,60.8,55.4,82,29.68,5.0,South,18.4,29.9,N/A,Rain,Light Rain,170,2013-01-30 14:15:00
9:35 AM,60.8,55.4,82,29.69,10.0,South,16.1,25.3,N/A,,Overcast,180,2013-01-30 14:35:00
9:55 AM,62.6,55.4,77,29.71,10.0,South,11.5,20.7,N/A,,Overcast,190,2013-01-30 14:55:00
10:15 AM,55.4,55.4,100,29.75,1.0,West,8.1,-,0.29,Rain,Heavy Rain,260,2013-01-30 15:15:00
10:35 AM,55.4,55.4,100,29.74,1.8,WSW,6.9,-,0.47,Rain,Rain,250,2013-01-30 15:35:00
10:55 AM,53.6,53.6,100,29.72,3.0,West,8.1,17.3,0.59,Rain,Heavy Rain,270,2013-01-30 15:55:00
11:15 AM,53.6,53.6,100,29.70,4.0,WSW,5.8,-,0.02,Rain,Rain,240,2013-01-30 16:15:00
11:35 AM,53.6,53.6,100,29.69,3.0,West,3.5,-,0.05,Rain,Rain,260,2013-01-30 16:35:00
11:55 AM,53.6,53.6,100,29.69,5.0,South,3.5,-,0.07,Rain,Rain,190,2013-01-30 16:55:00
12:15 PM,53.6,53.6,100,29.68,2.5,South,4.6,-,0.04,Rain,Light Rain,170,2013-01-30 17:15:00
12:35 PM,53.6,53.6,100,29.65,5.0,South,3.5,-,0.04,Rain,Light Rain,190,2013-01-30 17:35:00
12:55 PM,53.6,53.6,100,29.65,4.0,South,5.8,-,0.06,Rain,Rain,170,2013-01-30 17:55:00
1:15 PM,53.6,53.6,100,29.63,3.0,SSW,5.8,-,0.03,Rain,Heavy Rain,210,2013-01-30 18:15:00
1:35 PM,53.6,53.6,100,29.61,3.0,SSW,3.5,-,0.07,Rain,Rain,210,2013-01-30 18:35:00
1:55 PM,53.6,53.6,100,29.60,2.5,Calm,Calm,-,0.12,Rain,Rain,0,2013-01-30 18:55:00
2:15 PM,53.6,53.6,100,29.61,4.0,South,5.8,-,0.03,Rain,Rain,190,2013-01-30 19:15:00
2:35 PM,53.6,53.6,100,29.61,0.8,South,8.1,-,0.11,Rain,Rain,190,2013-01-30 19:35:00
2:55 PM,53.6,53.6,100,29.57,3.0,SSE,5.8,-,0.18,Rain,Heavy Rain,150,2013-01-30 19:55:00
3:15 PM,53.6,53.6,100,29.57,3.0,SSE,8.1,-,0.05,Rain,Heavy Rain,160,2013-01-30 20:15:00
3:35 PM,53.6,53.6,100,29.53,5.0,SSE,12.7,16.1,0.09,Rain,Rain,150,2013-01-30 20:35:00
3:55 PM,53.6,53.6,100,29.52,5.0,South,12.7,19.6,0.11,Rain,Rain,170,2013-01-30 20:55:00
4:15 PM,53.6,53.6,100,29.52,5.0,South,10.4,18.4,0.01,Rain,Light Rain,170,2013-01-30 21:15:00
4:35 PM,53.6,53.6,100,29.51,5.0,South,11.5,-,0.03,Rain,Rain,170,2013-01-30 21:35:00
4:55 PM,53.6,53.6,100,29.49,4.0,South,10.4,21.9,0.05,Rain,Rain,170,2013-01-30 21:55:00
5:15 PM,53.6,53.6,100,29.48,5.0,South,13.8,19.6,0.02,Rain,Rain,170,2013-01-30 22:15:00
5:35 PM,53.6,53.6,100,29.49,5.0,SSW,13.8,20.7,0.04,Rain,Rain,200,2013-01-30 22:35:00
5:55 PM,53.6,53.6,100,29.48,7.0,SW,11.5,19.6,0.05,Rain,Light Rain,220,2013-01-30 22:55:00
6:15 PM,53.6,53.6,100,29.50,4.0,SW,19.6,27.6,0.01,Rain,Light Rain,230,2013-01-30 23:15:00
6:35 PM,50.0,48.2,94,29.51,7.0,SW,17.3,33.4,0.02,Rain,Light Rain,220,2013-01-30 23:35:00
6:55 PM,48.2,48.2,100,29.50,5.0,SW,16.1,26.5,0.04,Rain,Light Rain,220,2013-01-30 23:55:00
7:15 PM,46.4,46.4,100,29.53,7.0,SW,20.7,28.8,0.01,Rain,Light Rain,230,2013-01-31 00:15:00
7:35 PM,44.6,44.6,100,29.52,7.0,SW,24.2,27.6,0.03,Rain,Rain,230,2013-01-31 00:35:00
7:55 PM,44.6,42.8,93,29.52,5.0,SW,19.6,23.0,0.05,Rain,Light Rain,220,2013-01-31 00:55:00
8:15 PM,44.6,42.8,93,29.52,5.0,SW,12.7,21.9,N/A,Rain,Light Rain,220,2013-01-31 01:15:00
8:35 PM,42.8,42.8,100,29.50,10.0,SSW,12.7,23.0,N/A,Rain,Light Rain,210,2013-01-31 01:35:00
8:55 PM,42.8,42.8,100,29.48,10.0,SSW,12.7,21.9,0.01,Rain,Light Rain,200,2013-01-31 01:55:00
9:15 PM,42.8,42.8,100,29.50,10.0,SSW,23.0,27.6,N/A,Rain,Light Rain,210,2013-01-31 02:15:00
9:35 PM,42.8,42.8,100,29.47,10.0,SSW,15.0,21.9,N/A,,Light Drizzle,200,2013-01-31 02:35:00
9:55 PM,42.8,42.8,100,29.49,7.0,SSW,20.7,26.5,0.01,Rain,Light Rain,200,2013-01-31 02:55:00
10:15 PM,42.8,42.8,100,29.47,5.0,SSW,17.3,23.0,N/A,Rain,Light Rain,210,2013-01-31 03:15:00
10:35 PM,42.8,41.0,93,29.47,7.0,SW,19.6,26.5,N/A,,Light Drizzle,230,2013-01-31 03:35:00
10:55 PM,42.8,41.0,93,29.46,10.0,SW,13.8,26.5,N/A,,Overcast,230,2013-01-31 03:55:00
11:15 PM,41.0,41.0,100,29.49,4.0,WNW,19.6,24.2,0.01,Rain,Rain,300,2013-01-31 04:15:00
11:35 PM,37.4,37.4,100,29.50,10.0,West,19.6,29.9,0.04,,Overcast,270,2013-01-31 04:35:00
11:55 PM,37.4,35.6,93,29.52,10.0,West,15.0,25.3,0.05,,Overcast,270,2013-01-31 04:55:00